^^
Station Historical Data
 
Daily Summary for May 27, 2018 Units:  English    Metric   Both
« Previous Day
Next Day »
Daily Weekly Monthly Yearly Custom
  Current: High: Low: Average:
Temperature: 79.3 °F TemperatureF °F 65.5 °F 69.5 °F
Dew Point: 70.0 °F DewpointF °F 64.0 °F 66.8 °F
Humidity: 73% Humidity% 72% 91%
Wind Speed: 0.0mph WindSpeedMPHmph 0.0mph 0mph
Wind Gust: 0.0mph WindSpeedGustMPHmph - -
WindCalm - - NW
Pressure: 29.97 in PressureIn in 29.93 in -
Precipitation: 0.00 in      
Historical Graphs
 
 
Tabular Data for May 27, 2018
Time Temperature Dew Point Pressure Wind Wind Speed Wind Gust Humidity Rainfall Rate (Hourly)
TemperatureF °F DewpointF °F PressureIn in Calm     Humidity% HourlyPrecipIn in
00:02 72.0 °F 69.4 °F 29.95 in Calm     92% 0.00 in
00:08 72.0 °F 69.3 °F 29.94 in Calm     91% 0.00 in
00:14 72.0 °F 69.3 °F 29.94 in Calm     91% 0.00 in
00:19 71.8 °F 69.1 °F 29.95 in Calm     91% 0.00 in
00:25 71.8 °F 69.1 °F 29.95 in Calm     91% 0.00 in
00:31 71.8 °F 69.3 °F 29.95 in Calm     92% 0.00 in
00:36 71.6 °F 69.1 °F 29.94 in Calm     92% 0.00 in
00:42 71.4 °F 68.9 °F 29.94 in Calm     92% 0.00 in
00:47 71.4 °F 68.9 °F 29.94 in Calm     92% 0.00 in
00:49 71.4 °F 68.9 °F 29.94 in Calm     92% 0.00 in
00:54 71.2 °F 68.7 °F 29.94 in Calm     92% 0.00 in
00:59 71.2 °F 68.7 °F 29.94 in Calm     92% 0.00 in
01:05 71.2 °F 68.7 °F 29.94 in Calm     92% 0.00 in
01:10 71.1 °F 68.5 °F 29.94 in Calm     92% 0.00 in
01:16 71.1 °F 68.5 °F 29.94 in Calm     92% 0.00 in
01:21 71.1 °F 68.5 °F 29.94 in Calm     92% 0.00 in
01:27 71.1 °F 68.5 °F 29.93 in Calm     92% 0.00 in
01:32 71.1 °F 68.9 °F 29.93 in Calm     93% 0.00 in
01:37 71.1 °F 68.9 °F 29.93 in Calm     93% 0.00 in
01:42 71.1 °F 68.9 °F 29.93 in Calm     93% 0.00 in
01:47 70.9 °F 68.7 °F 29.93 in Calm     93% 0.00 in
01:53 70.9 °F 68.7 °F 29.93 in Calm     93% 0.00 in
01:58 70.9 °F 68.7 °F 29.93 in Calm     93% 0.00 in
02:03 70.9 °F 68.7 °F 29.93 in Calm     93% 0.00 in
02:08 70.7 °F 68.5 °F 29.93 in Calm     93% 0.00 in
02:13 70.5 °F 68.4 °F 29.93 in Calm     93% 0.00 in
02:18 70.5 °F 68.4 °F 29.93 in Calm     93% 0.00 in
02:24 70.5 °F 68.4 °F 29.93 in Calm     93% 0.00 in
02:29 70.3 °F 68.2 °F 29.93 in Calm     93% 0.00 in
02:35 70.3 °F 68.2 °F 29.93 in Calm     93% 0.00 in
02:40 70.2 °F 68.0 °F 29.94 in Calm     93% 0.00 in
02:46 70.0 °F 67.8 °F 29.94 in Calm     93% 0.00 in
02:51 69.8 °F 67.6 °F 29.94 in Calm     93% 0.00 in
02:56 69.6 °F 67.5 °F 29.94 in Calm     93% 0.00 in
03:01 69.4 °F 67.3 °F 29.93 in Calm     93% 0.00 in
03:06 69.4 °F 67.3 °F 29.94 in Calm     93% 0.00 in
03:11 69.3 °F 67.1 °F 29.94 in Calm     93% 0.00 in
03:17 69.3 °F 67.1 °F 29.93 in Calm     93% 0.00 in
03:22 69.1 °F 66.9 °F 29.94 in Calm     93% 0.00 in
03:27 69.1 °F 66.9 °F 29.94 in Calm     93% 0.00 in
03:32 68.7 °F 66.9 °F 29.94 in Calm     94% 0.00 in
03:38 68.7 °F 66.9 °F 29.93 in Calm     94% 0.00 in
03:44 68.5 °F 66.4 °F 29.94 in Calm     93% 0.00 in
03:50 68.5 °F 66.7 °F 29.93 in Calm     94% 0.00 in
03:55 68.4 °F 66.6 °F 29.94 in Calm     94% 0.00 in
04:01 68.4 °F 66.6 °F 29.94 in Calm     94% 0.00 in
04:06 68.2 °F 66.4 °F 29.94 in Calm     94% 0.00 in
04:11 68.0 °F 66.2 °F 29.94 in Calm     94% 0.00 in
04:16 67.8 °F 66.0 °F 29.94 in Calm     94% 0.00 in
04:22 67.8 °F 66.0 °F 29.94 in Calm     94% 0.00 in
04:28 67.6 °F 65.8 °F 29.94 in Calm     94% 0.00 in
04:33 67.6 °F 65.8 °F 29.94 in Calm     94% 0.00 in
04:38 67.5 °F 65.7 °F 29.94 in Calm     94% 0.00 in
04:43 67.5 °F 65.7 °F 29.94 in Calm     94% 0.00 in
04:48 67.5 °F 65.7 °F 29.95 in Calm     94% 0.00 in
04:54 67.3 °F 65.5 °F 29.94 in Calm     94% 0.00 in
04:59 67.3 °F 65.5 °F 29.94 in Calm     94% 0.00 in
05:04 67.1 °F 65.3 °F 29.94 in Calm     94% 0.00 in
05:09 66.9 °F 65.1 °F 29.94 in Calm     94% 0.00 in
05:14 66.9 °F 65.1 °F 29.94 in Calm     94% 0.00 in
05:19 66.7 °F 64.9 °F 29.95 in Calm     94% 0.00 in
05:25 66.7 °F 65.3 °F 29.95 in Calm     95% 0.00 in
05:30 66.6 °F 64.8 °F 29.95 in Calm     94% 0.00 in
05:35 66.6 °F 64.8 °F 29.95 in Calm     94% 0.00 in
05:40 66.4 °F 64.6 °F 29.94 in Calm     94% 0.00 in
05:45 66.4 °F 64.6 °F 29.95 in Calm     94% 0.00 in
05:51 66.2 °F 64.4 °F 29.95 in Calm     94% 0.00 in
05:56 66.0 °F 64.6 °F 29.95 in Calm     95% 0.00 in
06:01 66.0 °F 64.2 °F 29.95 in Calm     94% 0.00 in
06:06 65.8 °F 64.4 °F 29.95 in Calm     95% 0.00 in
06:12 65.8 °F 64.4 °F 29.95 in Calm     95% 0.00 in
06:17 65.8 °F 64.4 °F 29.95 in Calm     95% 0.00 in
06:23 65.7 °F 64.2 °F 29.95 in Calm     95% 0.00 in
06:28 65.7 °F 64.2 °F 29.96 in Calm     95% 0.00 in
06:34 65.7 °F 64.2 °F 29.96 in Calm     95% 0.00 in
06:40 65.5 °F 64.0 °F 29.96 in Calm     95% 0.00 in
06:45 65.5 °F 64.0 °F 29.96 in Calm     95% 0.00 in
06:50 65.5 °F 64.0 °F 29.96 in Calm     95% 0.00 in
06:55 65.5 °F 64.0 °F 29.96 in Calm     95% 0.00 in
07:01 65.5 °F 64.0 °F 29.96 in Calm     95% 0.00 in
07:07 65.5 °F 64.0 °F 29.96 in Calm     95% 0.00 in
07:12 65.5 °F 64.0 °F 29.96 in Calm     95% 0.00 in
07:17 65.7 °F 64.2 °F 29.97 in Calm     95% 0.00 in
07:23 65.7 °F 64.2 °F 29.96 in Calm     95% 0.00 in
07:28 65.8 °F 64.4 °F 29.96 in Calm     95% 0.00 in
07:33 66.0 °F 64.6 °F 29.97 in Calm     95% 0.00 in
07:39 66.2 °F 64.9 °F 29.97 in Calm     96% 0.00 in
07:44 66.4 °F 65.1 °F 29.97 in Calm     96% 0.00 in
07:50 66.6 °F 65.3 °F 29.97 in Calm     96% 0.00 in
07:55 66.7 °F 65.5 °F 29.97 in Calm     96% 0.00 in
08:01 66.9 °F 65.7 °F 29.97 in Calm     96% 0.00 in
08:07 67.5 °F 66.2 °F 29.97 in Calm     96% 0.00 in
08:12 67.6 °F 66.4 °F 29.97 in Calm     96% 0.00 in
08:18 67.8 °F 66.6 °F 29.97 in Calm     96% 0.00 in
08:23 68.2 °F 66.9 °F 29.97 in Calm     96% 0.00 in
08:28 68.4 °F 67.1 °F 29.97 in Calm     96% 0.00 in
08:33 68.5 °F 67.3 °F 29.97 in Calm     96% 0.00 in
08:38 68.9 °F 67.6 °F 29.97 in Calm     96% 0.00 in
08:44 69.3 °F 67.8 °F 29.97 in Calm     95% 0.00 in
08:49 69.4 °F 68.0 °F 29.97 in Calm     95% 0.00 in
08:54 69.8 °F 68.4 °F 29.97 in Calm     95% 0.00 in
08:59 70.2 °F 68.7 °F 29.97 in Calm     95% 0.00 in
09:04 70.5 °F 69.1 °F 29.97 in Calm     95% 0.00 in
09:09 70.9 °F 69.1 °F 29.97 in Calm     94% 0.00 in
09:14 71.2 °F 69.4 °F 29.97 in Calm     94% 0.00 in
09:19 71.8 °F 69.6 °F 29.97 in Calm     93% 0.00 in
09:25 72.3 °F 69.8 °F 29.97 in Calm     92% 0.00 in
09:30 72.9 °F 70.2 °F 29.97 in Calm   1.0 mph 91% 0.00 in
09:35 73.4 °F 69.6 °F 29.97 in Calm     88% 0.00 in
09:40 73.9 °F 70.2 °F 29.97 in Calm     88% 0.00 in
09:46 74.3 °F 70.2 °F 29.98 in Calm     87% 0.00 in
09:51 74.5 °F 70.0 °F 29.98 in Calm     86% 0.00 in
09:56 74.8 °F 70.3 °F 29.97 in Calm     86% 0.00 in
10:02 75.4 °F 70.5 °F 29.98 in Calm   1.0 mph 85% 0.00 in
10:07 75.9 °F 70.7 °F 29.98 in Calm     84% 0.00 in
10:13 76.1 °F 70.2 °F 29.97 in NW 2.0 mph 3.0 mph 82% 0.00 in
10:18 76.5 °F 70.5 °F 29.97 in Calm     82% 0.00 in
10:23 76.8 °F 69.8 °F 29.97 in Calm   1.0 mph 79% 0.00 in
10:29 77.2 °F 70.5 °F 29.97 in Calm   1.0 mph 80% 0.00 in
10:34 77.2 °F 69.4 °F 29.97 in Calm     77% 0.00 in
10:39 77.2 °F 69.4 °F 29.97 in Calm     77% 0.00 in
10:44 77.2 °F 69.8 °F 29.97 in Calm     78% 0.00 in
10:50 77.4 °F 70.0 °F 29.97 in Calm     78% 0.00 in
10:55 77.5 °F 70.2 °F 29.97 in Calm   1.0 mph 78% 0.00 in
11:01 77.7 °F 70.0 °F 29.97 in Calm     77% 0.00 in
11:06 78.1 °F 70.3 °F 29.97 in Calm     77% 0.00 in
11:11 78.3 °F 70.0 °F 29.97 in Calm   1.0 mph 76% 0.00 in
11:16 78.4 °F 68.7 °F 29.97 in Calm     72% 0.00 in
11:21 78.6 °F 69.3 °F 29.97 in Calm   1.0 mph 73% 0.00 in
11:26 79.3 °F 70.0 °F 29.97 in Calm     73% 0.00 in
Ellijay Weather
Compliments of Weather Underground - 1.75 mb